createdAt,value
2023-02-17T00:03:47.602Z,61.25
2023-02-17T00:08:46.807Z,61.29
2023-02-17T00:13:56.943Z,61.56
2023-02-17T00:18:58.650Z,61.42
2023-02-17T00:24:11.486Z,61.41
2023-02-17T00:29:08.658Z,61.36
2023-02-17T00:34:09.683Z,61.49
2023-02-17T00:39:17.309Z,61.52
2023-02-17T00:44:23.532Z,61.81
2023-02-17T00:49:27.642Z,61.61
2023-02-17T00:54:24.768Z,61.99
2023-02-17T00:59:23.994Z,62.17
2023-02-17T01:04:21.275Z,61.97
2023-02-17T01:09:19.076Z,62.37
2023-02-17T01:14:24.004Z,62.53
2023-02-17T01:19:21.209Z,62.39
2023-02-17T01:24:21.302Z,62.58
2023-02-17T01:29:21.568Z,62.33
2023-02-17T01:34:22.076Z,62.07
2023-02-17T01:39:22.463Z,62.23
2023-02-17T01:44:23.090Z,62.02
2023-02-17T01:49:33.476Z,62.07
2023-02-17T01:54:41.572Z,62.26
2023-02-17T01:59:42.856Z,62.61
2023-02-17T02:04:45.855Z,62.24
2023-02-17T02:09:49.376Z,61.93
2023-02-17T02:14:52.569Z,62.17
2023-02-17T02:20:37.479Z,61.84
2023-02-17T02:26:12.925Z,62.04
2023-02-17T02:31:29.599Z,61.51
2023-02-17T02:36:29.913Z,62.11
2023-02-17T02:41:31.664Z,61.85
2023-02-17T02:46:28.939Z,61.69
2023-02-17T02:51:40.642Z,61.49
2023-02-17T02:56:49.375Z,61.45
2023-02-17T03:01:53.924Z,60.96
2023-02-17T03:06:56.892Z,60.87
2023-02-17T03:11:57.099Z,60.67
2023-02-17T03:16:56.296Z,60.70
2023-02-17T03:22:04.438Z,61.14
2023-02-17T03:27:10.582Z,61.24
2023-02-17T03:32:08.411Z,61.65
2023-02-17T03:37:12.219Z,61.80
2023-02-17T03:42:09.510Z,62.11
2023-02-17T03:47:11.882Z,62.30
2023-02-17T03:52:16.021Z,62.54
2023-02-17T03:57:17.574Z,62.22
2023-02-17T04:02:19.574Z,61.93
2023-02-17T04:07:17.546Z,62.05
2023-02-17T04:12:14.605Z,61.96
2023-02-17T04:17:15.993Z,61.87
2023-02-17T04:22:18.299Z,61.63
2023-02-17T04:27:23.871Z,61.94
2023-02-17T04:32:25.138Z,61.93
2023-02-17T04:37:24.539Z,61.53
2023-02-17T04:42:25.247Z,61.69
2023-02-17T04:47:22.668Z,61.42
2023-02-17T04:52:23.061Z,61.32
2023-02-17T04:57:23.641Z,61.27
2023-02-17T05:02:30.108Z,60.71
2023-02-17T05:07:50.515Z,60.80
2023-02-17T05:12:54.037Z,60.77
2023-02-17T05:17:57.332Z,60.79
2023-02-17T05:22:56.102Z,60.55
2023-02-17T05:28:00.090Z,60.86
2023-02-17T05:33:38.985Z,60.71
2023-02-17T05:38:58.932Z,60.01
2023-02-17T05:44:15.342Z,60.72
2023-02-17T05:49:16.530Z,60.98
2023-02-17T05:54:14.286Z,60.35
2023-02-17T05:59:18.017Z,60.55
2023-02-17T06:04:25.117Z,60.35
2023-02-17T06:09:39.974Z,60.32
2023-02-17T06:14:54.274Z,59.23
2023-02-17T06:20:04.226Z,59.03
2023-02-17T06:25:36.291Z,58.94
2023-02-17T06:30:44.032Z,58.52
2023-02-17T06:36:49.292Z,57.74
2023-02-17T06:41:59.239Z,57.87
2023-02-17T06:47:30.431Z,57.77
2023-02-17T06:52:40.367Z,56.96
2023-02-17T06:57:47.513Z,56.18
2023-02-17T07:02:59.326Z,55.44
2023-02-17T07:08:06.591Z,55.09
2023-02-17T07:13:16.468Z,54.19
2023-02-17T07:23:36.089Z,52.58
2023-02-17T07:28:49.533Z,52.45
2023-02-17T07:33:54.790Z,52.30
2023-02-17T07:38:56.479Z,52.24
2023-02-17T07:44:11.483Z,51.04
2023-02-17T07:49:40.871Z,51.26
2023-02-17T07:54:45.165Z,50.48
2023-02-17T08:00:24.244Z,50.24
2023-02-17T08:05:51.826Z,49.77
2023-02-17T08:11:23.242Z,50.12
2023-02-17T08:16:29.540Z,49.99
2023-02-17T08:21:41.539Z,50.32
2023-02-17T08:26:57.932Z,50.12
2023-02-17T08:32:02.878Z,50.67
2023-02-17T08:37:15.326Z,50.22
2023-02-17T08:42:50.341Z,50.64
2023-02-17T08:47:50.934Z,50.77
2023-02-17T08:52:54.175Z,51.22
2023-02-17T08:58:22.661Z,50.87
2023-02-17T09:03:20.289Z,50.85
2023-02-17T09:08:35.174Z,50.57
2023-02-17T09:13:52.964Z,50.06
2023-02-17T09:18:57.487Z,49.65
2023-02-17T09:24:42.556Z,49.40
2023-02-17T09:30:02.337Z,48.97
2023-02-17T09:59:43.771Z,48.00
2023-02-17T10:05:52.319Z,48.25
2023-02-17T10:11:32.634Z,48.19
2023-02-17T10:23:24.011Z,48.04
2023-02-17T10:28:46.202Z,47.84
2023-02-17T10:34:20.453Z,48.26
2023-02-17T10:39:49.427Z,48.19
2023-02-17T10:45:11.389Z,47.73
2023-02-17T10:50:35.270Z,46.90
2023-02-17T10:55:52.301Z,46.01
2023-02-17T11:01:05.748Z,45.78
2023-02-17T11:06:33.346Z,44.58
2023-02-17T11:12:10.653Z,44.63
2023-02-17T11:36:55.561Z,41.83
2023-02-17T11:55:59.472Z,40.88
2023-02-17T12:01:19.991Z,41.22
2023-02-17T12:06:39.216Z,39.91
2023-02-17T12:17:58.512Z,39.54
2023-02-17T12:23:12.194Z,38.40
2023-02-17T12:28:43.914Z,38.58
2023-02-17T12:33:57.312Z,38.45
2023-02-17T12:39:11.846Z,38.56
2023-02-17T12:49:46.196Z,38.03
2023-02-17T12:55:03.088Z,37.75
2023-02-17T13:00:14.936Z,37.57
2023-02-17T13:05:24.295Z,37.19
2023-02-17T13:10:57.937Z,37.03
2023-02-17T13:16:16.125Z,37.06
2023-02-17T13:21:44.840Z,36.80
2023-02-17T13:26:56.859Z,36.80
2023-02-17T13:32:10.086Z,36.69
2023-02-17T13:37:38.662Z,37.11
2023-02-17T13:42:55.542Z,36.52
2023-02-17T13:48:01.652Z,37.23
2023-02-17T13:53:07.399Z,37.74
2023-02-17T13:58:44.318Z,38.63
2023-02-17T14:03:58.689Z,37.76
2023-02-17T14:09:03.696Z,36.30
2023-02-17T14:14:07.595Z,36.57
2023-02-17T14:19:14.628Z,36.42
2023-02-17T14:24:48.943Z,36.61
2023-02-17T14:30:09.294Z,37.18
2023-02-17T14:42:34.656Z,38.18
2023-02-17T14:47:35.183Z,38.40
2023-02-17T14:52:36.652Z,38.55
2023-02-17T14:57:45.801Z,39.27
2023-02-17T15:08:33.462Z,39.78
2023-02-17T15:13:54.337Z,40.07
2023-02-17T15:19:34.893Z,39.69
2023-02-17T15:24:52.309Z,39.73
2023-02-17T15:30:22.868Z,39.63
2023-02-17T15:35:35.349Z,39.44
2023-02-17T15:41:16.502Z,39.80
2023-02-17T15:46:22.476Z,40.01
2023-02-17T15:51:24.316Z,40.10
2023-02-17T15:56:48.032Z,40.33
2023-02-17T16:02:10.195Z,40.64
2023-02-17T16:07:24.230Z,40.79
2023-02-17T16:12:30.625Z,41.04
2023-02-17T16:17:41.799Z,41.04
2023-02-17T16:22:50.358Z,41.30
2023-02-17T16:28:10.881Z,41.52
2023-02-17T16:33:14.007Z,41.71
2023-02-17T16:38:55.576Z,41.93
2023-02-17T16:44:25.415Z,42.37
2023-02-17T16:49:51.718Z,42.81
2023-02-17T16:54:51.956Z,43.42
2023-02-17T17:05:31.409Z,43.87
2023-02-17T17:10:54.359Z,44.28
2023-02-17T17:16:19.419Z,44.46
2023-02-17T17:21:23.887Z,44.29
2023-02-17T17:26:30.710Z,44.97
2023-02-17T17:31:37.256Z,45.23
2023-02-17T17:36:41.297Z,45.43
2023-02-17T17:42:06.050Z,45.72
2023-02-17T17:48:10.897Z,45.58
2023-02-17T17:53:29.255Z,45.86
2023-02-17T17:58:47.242Z,46.20
2023-02-17T18:04:11.231Z,46.18
2023-02-17T18:09:31.743Z,46.24
2023-02-17T18:14:34.181Z,46.40
2023-02-17T18:20:12.594Z,46.97
2023-02-17T18:25:15.714Z,46.84
2023-02-17T18:30:43.747Z,46.98
2023-02-17T18:35:57.824Z,46.47
2023-02-17T18:41:20.800Z,46.62
2023-02-17T18:46:30.056Z,46.48
2023-02-17T18:51:55.423Z,46.63
2023-02-17T19:03:09.325Z,46.55
2023-02-17T19:08:39.953Z,46.74
2023-02-17T19:14:12.935Z,46.80
2023-02-17T19:19:42.598Z,46.82
2023-02-17T19:24:54.610Z,46.95
2023-02-17T19:30:33.559Z,46.80
2023-02-17T19:35:43.922Z,46.73
2023-02-17T19:48:09.199Z,46.48
2023-02-17T19:59:30.449Z,46.71
2023-02-17T20:10:31.926Z,46.51
2023-02-17T20:22:42.053Z,46.68
2023-02-17T20:29:18.411Z,46.66
2023-02-17T20:35:08.763Z,46.97
2023-02-17T20:41:18.940Z,46.64
2023-02-17T20:46:36.538Z,46.74
2023-02-17T20:57:29.591Z,46.34
2023-02-17T21:03:12.848Z,46.64
2023-02-17T21:08:47.928Z,46.75
2023-02-17T21:13:51.035Z,46.50
2023-02-17T21:18:53.149Z,46.61
2023-02-17T21:23:53.683Z,46.37
2023-02-17T21:28:54.791Z,46.42
2023-02-17T21:34:23.651Z,46.48
2023-02-17T21:39:43.972Z,46.41
2023-02-17T21:45:04.473Z,46.71
2023-02-17T21:50:22.407Z,46.54
2023-02-17T21:55:37.149Z,46.76
2023-02-17T22:00:42.153Z,46.63
2023-02-17T22:05:54.071Z,46.68
2023-02-17T22:10:58.046Z,46.44
2023-02-17T22:16:00.813Z,46.66
2023-02-17T22:21:11.998Z,46.62
2023-02-17T22:26:25.121Z,46.79
2023-02-17T22:31:29.678Z,46.83
2023-02-17T22:36:30.217Z,46.90
2023-02-17T22:41:28.506Z,46.92
2023-02-17T22:46:26.694Z,46.70
2023-02-17T22:51:35.476Z,46.84
2023-02-17T22:56:40.217Z,46.95
2023-02-17T23:01:51.994Z,46.96
2023-02-17T23:06:49.476Z,46.66
2023-02-17T23:11:49.864Z,46.98
2023-02-17T23:17:01.942Z,46.92
2023-02-17T23:22:16.920Z,47.06
2023-02-17T23:27:16.021Z,47.08
2023-02-17T23:32:18.839Z,46.76
2023-02-17T23:37:24.976Z,47.32
2023-02-17T23:42:27.298Z,47.21
2023-02-17T23:47:31.419Z,47.18
2023-02-17T23:52:47.592Z,47.34
2023-02-17T23:57:52.451Z,47.15
